Time;durP1;ratioP1;P1;durP2;ratioP2;P2;SDS_P1;SDS_P2;PMS_P1;PMS_P2;Temp;Humidity;BMP_temperature;BMP_pressure;BME280_temperature;BME280_humidity;BME280_pressure;Samples;Min_cycle;Max_cycle;Signal;HPM_P1;HPM_P2
2024/02/07 00:01:29;;;;;;;;;;;256.20;2252.80;;;;;;4998397;28;19906;-76
2024/02/07 00:03:55;;;;;;;;;;;256.20;2252.80;;;;;;4994791;28;19940;-83
2024/02/07 00:06:21;;;;;;;;;;;256.10;2252.80;;;;;;4993970;28;19988;-81
2024/02/07 00:08:46;;;;;;;;;;;231.30;2252.80;;;;;;4997372;28;20403;-77
2024/02/07 00:11:12;;;;;;;;;;;231.30;2252.80;;;;;;4995639;28;19909;-80
2024/02/07 00:13:38;;;;;;;;;;;231.30;2252.80;;;;;;4975102;28;19968;-79
2024/02/07 00:16:04;;;;;;;;;;;231.30;2252.80;;;;;;4958798;28;20363;-83
2024/02/07 00:18:29;;;;;;;;;;;256.00;2252.80;;;;;;4975072;28;19906;-81
2024/02/07 00:20:55;;;;;;;;;;;231.30;2252.80;;;;;;4980188;28;19909;-82
2024/02/07 00:23:21;;;;;;;;;;;231.30;2252.80;;;;;;4995114;28;19917;-82
2024/02/07 00:25:46;;;;;;;;;;;231.20;2252.80;;;;;;4995481;28;19913;-81
2024/02/07 00:28:12;;;;;;;;;;;231.20;2252.80;;;;;;4995537;28;19912;-83
2024/02/07 00:30:37;;;;;;;;;;;231.30;2252.80;;;;;;4995055;28;19913;-76
2024/02/07 00:33:03;;;;;;;;;;;231.30;2252.80;;;;;;4977481;28;19910;-78
2024/02/07 00:35:29;;;;;;;;;;;231.30;2252.80;;;;;;4995383;28;20375;-80
2024/02/07 00:37:54;;;;;;;;;;;231.20;2252.80;;;;;;4977020;28;19912;-76
2024/02/07 00:40:20;;;;;;;;;;;231.20;2252.80;;;;;;4995072;28;20000;-77
2024/02/07 00:42:47;;;;;;;;;;;231.20;2252.80;;;;;;4994886;28;19906;-75
2024/02/07 00:45:12;;;;;;;;;;;231.20;2252.80;;;;;;4977785;28;19906;-80
2024/02/07 00:47:39;;;;;;;;;;;231.20;2252.80;;;;;;4994512;28;19928;-79
2024/02/07 00:50:04;;;;;;;;;;;231.30;2252.80;;;;;;4994918;28;19906;-82
2024/02/07 00:52:30;;;;;;;;;;;256.00;2252.80;;;;;;4994902;28;20282;-83
2024/02/07 00:54:56;;;;;;;;;;;256.10;2252.80;;;;;;4995170;28;19917;-76
2024/02/07 00:57:21;;;;;;;;;;;256.10;2252.80;;;;;;4977712;28;19912;-82
2024/02/07 00:59:47;;;;;;;;;;;256.10;2252.80;;;;;;4990223;28;20257;-75
2024/02/07 01:02:14;;;;;;;;;;;256.10;2252.80;;;;;;4992265;28;20371;-82
2024/02/07 01:04:40;;;;;;;;;;;256.10;2252.80;;;;;;4994975;28;19909;-76
2024/02/07 01:07:07;;;;;;;;;;;256.10;2252.80;;;;;;4994342;28;20371;-82
2024/02/07 01:09:34;;;;;;;;;;;256.10;2252.80;;;;;;5001071;28;20360;-79
2024/02/07 01:12:01;;;;;;;;;;;256.10;2252.80;;;;;;4994695;28;20251;-80
2024/02/07 01:14:26;;;;;;;;;;;256.10;2252.80;;;;;;4977376;28;19917;-81
2024/02/07 01:16:52;;;;;;;;;;;256.00;2252.80;;;;;;4994482;28;19914;-77
2024/02/07 01:19:17;;;;;;;;;;;231.30;2252.80;;;;;;4994719;28;19953;-76
2024/02/07 01:21:43;;;;;;;;;;;231.10;2252.80;;;;;;4993122;28;20016;-76
2024/02/07 01:24:09;;;;;;;;;;;231.10;2252.80;;;;;;4994702;28;20262;-81
2024/02/07 01:26:35;;;;;;;;;;;231.10;2252.80;;;;;;4992150;28;19913;-76
2024/02/07 01:29:00;;;;;;;;;;;231.10;2252.80;;;;;;4993500;28;19905;-81
2024/02/07 01:31:26;;;;;;;;;;;230.90;2252.80;;;;;;4994435;28;19910;-76
2024/02/07 01:33:54;;;;;;;;;;;230.80;2252.80;;;;;;4994572;28;20000;-76
2024/02/07 01:36:21;;;;;;;;;;;230.70;2252.80;;;;;;4978258;28;19914;-82
2024/02/07 01:38:46;;;;;;;;;;;230.70;2252.80;;;;;;4998527;28;19910;-82
2024/02/07 01:41:12;;;;;;;;;;;230.70;2252.80;;;;;;4998454;28;19905;-80
2024/02/07 01:43:37;;;;;;;;;;;230.60;2252.80;;;;;;4980943;28;19929;-80
2024/02/07 01:46:03;;;;;;;;;;;230.60;2252.80;;;;;;4998216;28;19955;-78
2024/02/07 01:48:29;;;;;;;;;;;230.40;2252.80;;;;;;4980728;28;19905;-83
2024/02/07 01:50:55;;;;;;;;;;;205.50;2252.80;;;;;;4980862;28;19960;-76
2024/02/07 01:53:21;;;;;;;;;;;205.20;2252.80;;;;;;4998086;28;19906;-82
2024/02/07 01:55:49;;;;;;;;;;;205.30;2252.80;;;;;;4997503;28;19914;-83
2024/02/07 01:58:15;;;;;;;;;;;205.20;2252.80;;;;;;4989513;28;20369;-76
2024/02/07 02:00:41;;;;;;;;;;;205.30;2252.80;;;;;;4997037;28;19932;-82
2024/02/07 02:03:07;;;;;;;;;;;205.00;2252.80;;;;;;4998359;28;19910;-83
2024/02/07 02:05:33;;;;;;;;;;;180.10;2252.80;;;;;;4980238;28;19914;-81
2024/02/07 02:07:58;;;;;;;;;;;180.10;2252.80;;;;;;4996839;28;19913;-81
2024/02/07 02:10:24;;;;;;;;;;;204.80;2252.80;;;;;;4984875;28;19905;-76
2024/02/07 02:12:50;;;;;;;;;;;204.80;2252.80;;;;;;4997983;28;20004;-78
2024/02/07 02:15:16;;;;;;;;;;;205.00;2252.80;;;;;;4996353;28;19988;-82
2024/02/07 02:17:42;;;;;;;;;;;205.00;2252.80;;;;;;4980327;28;19937;-79
2024/02/07 02:20:07;;;;;;;;;;;205.10;2252.80;;;;;;4997434;28;19913;-78
2024/02/07 02:22:33;;;;;;;;;;;205.10;2252.80;;;;;;4997448;28;19918;-77
2024/02/07 02:25:00;;;;;;;;;;;205.20;2252.80;;;;;;4996097;28;19912;-81
2024/02/07 02:27:25;;;;;;;;;;;205.20;2252.80;;;;;;4996099;28;19960;-79
2024/02/07 02:29:53;;;;;;;;;;;205.40;2252.80;;;;;;4997364;28;19906;-78
2024/02/07 02:32:22;;;;;;;;;;;205.40;2252.80;;;;;;4997501;28;20295;-77
2024/02/07 02:34:50;;;;;;;;;;;205.20;2252.80;;;;;;4997286;28;20330;-81
2024/02/07 02:37:17;;;;;;;;;;;205.20;2252.80;;;;;;4996189;28;20024;-76
2024/02/07 02:39:43;;;;;;;;;;;204.90;2252.80;;;;;;4979970;28;19917;-82
2024/02/07 02:42:09;;;;;;;;;;;205.20;2252.80;;;;;;4995886;28;19905;-78
2024/02/07 02:44:34;;;;;;;;;;;205.20;2252.80;;;;;;4997300;28;19912;-81
2024/02/07 02:47:02;;;;;;;;;;;205.20;2252.80;;;;;;5001617;28;19968;-83
2024/02/07 02:49:28;;;;;;;;;;;205.20;2252.80;;;;;;4979248;28;19905;-81
2024/02/07 02:51:55;;;;;;;;;;;205.30;2252.80;;;;;;4995931;28;19964;-75
2024/02/07 02:54:21;;;;;;;;;;;205.20;2252.80;;;;;;4997017;28;19905;-80
2024/02/07 02:56:47;;;;;;;;;;;205.40;2252.80;;;;;;4997029;28;19905;-76
2024/02/07 02:59:14;;;;;;;;;;;205.50;2252.80;;;;;;4979781;28;19926;-82
2024/02/07 03:01:40;;;;;;;;;;;205.50;2252.80;;;;;;4979335;28;19953;-77
2024/02/07 03:04:06;;;;;;;;;;;205.70;2252.80;;;;;;4979556;28;19913;-78
2024/02/07 03:06:50;;;;;;;;;;;230.40;2252.80;;;;;;4995697;28;19963;-81
2024/02/07 03:09:20;;;;;;;;;;;205.70;2252.80;;;;;;4979446;28;19941;-78
2024/02/07 03:11:48;;;;;;;;;;;230.40;2252.80;;;;;;4979063;28;19906;-83
2024/02/07 03:14:14;;;;;;;;;;;230.50;2252.80;;;;;;4995576;28;19910;-76
2024/02/07 03:16:39;;;;;;;;;;;205.50;2252.80;;;;;;4996508;28;19965;-82
2024/02/07 03:19:05;;;;;;;;;;;205.40;2252.80;;;;;;4986922;28;19992;-83
2024/02/07 03:21:30;;;;;;;;;;;205.60;2252.80;;;;;;4996421;28;20000;-83
2024/02/07 03:23:56;;;;;;;;;;;205.70;2252.80;;;;;;4996253;28;19913;-77
2024/02/07 03:26:22;;;;;;;;;;;205.40;2252.80;;;;;;4997629;28;19910;-81
2024/02/07 03:28:49;;;;;;;;;;;205.40;2252.80;;;;;;4996333;28;19906;-79
2024/02/07 03:31:15;;;;;;;;;;;230.50;2252.80;;;;;;4978773;28;19909;-83
2024/02/07 03:33:43;;;;;;;;;;;205.70;2252.80;;;;;;4996319;28;19909;-83
2024/02/07 03:36:09;;;;;;;;;;;205.70;2252.80;;;;;;4994550;28;19983;-82
2024/02/07 03:38:34;;;;;;;;;;;205.70;2252.80;;;;;;4996217;28;19906;-83
2024/02/07 03:41:00;;;;;;;;;;;230.40;2252.80;;;;;;4997906;28;19932;-80
2024/02/07 03:43:27;;;;;;;;;;;230.40;2252.80;;;;;;4996220;28;19989;-82
2024/02/07 03:45:52;;;;;;;;;;;230.50;2252.80;;;;;;4997685;28;19906;-77
2024/02/07 03:48:18;;;;;;;;;;;230.50;2252.80;;;;;;4995864;28;19992;-80
2024/02/07 03:50:48;;;;;;;;;;;230.50;2252.80;;;;;;4995569;28;19933;-76
2024/02/07 03:53:14;;;;;;;;;;;205.70;2252.80;;;;;;4995997;28;19910;-83
2024/02/07 03:55:40;;;;;;;;;;;230.40;2252.80;;;;;;4978500;28;20016;-82
2024/02/07 03:58:06;;;;;;;;;;;205.50;2252.80;;;;;;4994686;28;19905;-82
2024/02/07 04:00:32;;;;;;;;;;;205.60;2252.80;;;;;;4995177;28;19992;-77
2024/02/07 04:02:58;;;;;;;;;;;205.50;2252.80;;;;;;4985028;28;19932;-82
2024/02/07 04:05:26;;;;;;;;;;;205.70;2252.80;;;;;;4995393;28;20004;-76
2024/02/07 04:07:52;;;;;;;;;;;205.50;2252.80;;;;;;5003283;28;20279;-76
2024/02/07 04:10:18;;;;;;;;;;;205.40;2252.80;;;;;;4990552;28;19905;-77
2024/02/07 05:15:34;;;;;;;;;;;205.20;2252.80;;;;;;4996377;28;19965;-76
2024/02/07 05:18:00;;;;;;;;;;;205.30;2252.80;;;;;;4985560;28;19909;-77
2024/02/07 05:20:26;;;;;;;;;;;205.30;2252.80;;;;;;4992263;28;19914;-77
2024/02/07 05:22:51;;;;;;;;;;;205.10;2252.80;;;;;;4976293;28;20384;-78
2024/02/07 05:25:17;;;;;;;;;;;205.10;2252.80;;;;;;4973900;28;20350;-76
2024/02/07 05:27:43;;;;;;;;;;;205.30;2252.80;;;;;;4989528;28;19910;-77
2024/02/07 05:30:09;;;;;;;;;;;205.40;2252.80;;;;;;4974462;28;20271;-77
2024/02/07 05:32:35;;;;;;;;;;;205.50;2252.80;;;;;;4991522;28;20290;-77
2024/02/07 05:35:00;;;;;;;;;;;205.40;2252.80;;;;;;4993025;28;19918;-77
2024/02/07 05:37:28;;;;;;;;;;;205.40;2252.80;;;;;;4994286;28;19909;-76
2024/02/07 05:39:53;;;;;;;;;;;205.50;2252.80;;;;;;4994480;28;19909;-80
2024/02/07 05:42:19;;;;;;;;;;;205.40;2252.80;;;;;;4991413;28;20386;-80
2024/02/07 05:44:46;;;;;;;;;;;205.60;2252.80;;;;;;4980121;28;19909;-81
2024/02/07 05:47:12;;;;;;;;;;;205.50;2252.80;;;;;;5011403;28;19906;-80
2024/02/07 05:49:38;;;;;;;;;;;205.40;2252.80;;;;;;4992537;28;20000;-79
2024/02/07 05:52:03;;;;;;;;;;;205.30;2252.80;;;;;;4976884;28;19914;-80
2024/02/07 05:54:29;;;;;;;;;;;205.10;2252.80;;;;;;4976645;28;20283;-81
2024/02/07 05:56:56;;;;;;;;;;;204.90;2252.80;;;;;;4993004;28;20311;-81
2024/02/07 05:59:21;;;;;;;;;;;204.80;2252.80;;;;;;4976979;28;19949;-79
2024/02/07 06:01:50;;;;;;;;;;;180.10;2252.80;;;;;;4992522;28;19964;-80
2024/02/07 06:04:17;;;;;;;;;;;180.10;2252.80;;;;;;4994396;28;20008;-81
2024/02/07 06:06:45;;;;;;;;;;;180.00;2252.80;;;;;;4983897;28;20104;-78
2024/02/07 06:09:14;;;;;;;;;;;180.10;2252.80;;;;;;4993727;28;19906;-77
2024/02/07 06:11:43;;;;;;;;;;;180.10;2252.80;;;;;;4976771;28;19905;-76
2024/02/07 06:14:10;;;;;;;;;;;180.10;2252.80;;;;;;4979079;28;19941;-77
2024/02/07 06:16:36;;;;;;;;;;;180.10;2252.80;;;;;;4994492;28;19921;-79
2024/02/07 06:19:03;;;;;;;;;;;180.10;2252.80;;;;;;4976650;28;19906;-78
2024/02/07 06:21:32;;;;;;;;;;;180.10;2252.80;;;;;;4992709;28;19909;-81
2024/02/07 06:23:57;;;;;;;;;;;180.10;2252.80;;;;;;4966351;28;20409;-79
2024/02/07 06:26:23;;;;;;;;;;;180.10;2252.80;;;;;;4979314;28;20000;-78
2024/02/07 06:28:50;;;;;;;;;;;204.80;2252.80;;;;;;4980056;28;19905;-80
2024/02/07 06:31:16;;;;;;;;;;;204.90;2252.80;;;;;;4995920;28;19905;-80
2024/02/07 06:33:41;;;;;;;;;;;205.10;2252.80;;;;;;4979728;28;19913;-79
2024/02/07 06:36:07;;;;;;;;;;;205.30;2252.80;;;;;;4995895;28;20009;-81
2024/02/07 06:38:33;;;;;;;;;;;205.30;2252.80;;;;;;5005682;28;19912;-81
2024/02/07 06:40:58;;;;;;;;;;;205.50;2252.80;;;;;;4979899;28;19956;-82
2024/02/07 06:43:24;;;;;;;;;;;230.60;2252.80;;;;;;4979873;28;20423;-81
2024/02/07 06:45:50;;;;;;;;;;;205.60;2252.80;;;;;;4995962;28;19905;-81
2024/02/07 06:48:15;;;;;;;;;;;230.40;2252.80;;;;;;5012402;28;20055;-82
2024/02/07 06:50:41;;;;;;;;;;;230.40;2252.80;;;;;;4997181;28;19916;-80
2024/02/07 06:53:06;;;;;;;;;;;230.60;2252.80;;;;;;4979536;28;19906;-81
2024/02/07 06:55:33;;;;;;;;;;;230.60;2252.80;;;;;;4995066;28;19913;-80
2024/02/07 06:57:58;;;;;;;;;;;230.90;2252.80;;;;;;4979952;28;20356;-81
2024/02/07 07:00:24;;;;;;;;;;;231.00;2252.80;;;;;;4992132;28;19906;-80
2024/02/07 07:02:50;;;;;;;;;;;230.90;2252.80;;;;;;4979563;28;19910;-81
2024/02/07 07:05:15;;;;;;;;;;;231.20;2252.80;;;;;;4995809;28;19916;-81
2024/02/07 07:07:41;;;;;;;;;;;231.20;2252.80;;;;;;4979107;28;19948;-81
2024/02/07 07:10:07;;;;;;;;;;;231.10;2252.80;;;;;;4995161;28;19952;-81
2024/02/07 07:12:32;;;;;;;;;;;230.90;2252.80;;;;;;4979673;28;20268;-80
2024/02/07 07:14:58;;;;;;;;;;;230.80;2252.80;;;;;;4996329;28;20362;-81
2024/02/07 07:17:24;;;;;;;;;;;230.70;2252.80;;;;;;4979168;28;19910;-81
2024/02/07 07:19:49;;;;;;;;;;;230.70;2252.80;;;;;;4995396;28;20004;-82
2024/02/07 07:22:15;;;;;;;;;;;230.80;2252.80;;;;;;4996658;28;19968;-82
2024/02/07 07:24:40;;;;;;;;;;;230.80;2252.80;;;;;;4995028;28;19909;-80
2024/02/07 07:27:06;;;;;;;;;;;231.20;2252.80;;;;;;4996092;28;20008;-81
2024/02/07 07:29:32;;;;;;;;;;;231.30;2252.80;;;;;;4995999;28;19940;-82
2024/02/07 07:31:57;;;;;;;;;;;231.30;2252.80;;;;;;4970226;28;20378;-84
2024/02/07 07:34:23;;;;;;;;;;;256.10;2252.80;;;;;;4991732;28;19921;-83
2024/02/07 07:36:49;;;;;;;;;;;256.20;2252.80;;;;;;4996970;28;19910;-81
2024/02/07 07:39:15;;;;;;;;;;;256.10;2252.80;;;;;;4996410;28;20000;-81
2024/02/07 07:41:40;;;;;;;;;;;256.20;2252.80;;;;;;5005434;28;20379;-80
2024/02/07 07:44:06;;;;;;;;;;;256.40;2252.80;;;;;;4979069;28;19906;-82
2024/02/07 07:46:31;;;;;;;;;;;256.80;2252.80;;;;;;4978999;28;19906;-82
2024/02/07 07:48:58;;;;;;;;;;;256.90;2252.80;;;;;;4995085;28;19909;-81
2024/02/07 07:51:26;;;;;;;;;;;256.80;2252.80;;;;;;5004891;28;19909;-80
2024/02/07 07:53:52;;;;;;;;;;;281.70;2278.40;;;;;;4978450;28;19913;-82
2024/02/07 07:56:18;;;;;;;;;;;281.90;2278.40;;;;;;4994743;28;19920;-79
2024/02/07 07:58:48;;;;;;;;;;;281.90;2278.40;;;;;;4978703;28;19952;-80
2024/02/07 08:01:14;;;;;;;;;;;282.00;2278.40;;;;;;4978388;28;19910;-80
2024/02/07 08:03:39;;;;;;;;;;;282.00;2278.40;;;;;;4978487;28;19917;-82
2024/02/07 08:06:07;;;;;;;;;;;282.10;2278.40;;;;;;4978476;28;19910;-86
2024/02/07 08:08:33;;;;;;;;;;;282.00;2278.40;;;;;;4978483;28;19921;-85
2024/02/07 08:10:59;;;;;;;;;;;281.90;2278.40;;;;;;4978891;28;19906;-82
2024/02/07 08:13:24;;;;;;;;;;;281.80;2278.40;;;;;;4995409;28;20000;-82
2024/02/07 08:15:50;;;;;;;;;;;281.60;2278.40;;;;;;4978393;28;19969;-82
2024/02/07 08:18:16;;;;;;;;;;;281.70;2278.40;;;;;;4993941;28;20318;-84
2024/02/07 08:20:41;;;;;;;;;;;281.80;2278.40;;;;;;4978302;28;19910;-84
2024/02/07 08:23:07;;;;;;;;;;;282.10;2278.40;;;;;;4993353;28;20000;-82
2024/02/07 08:25:32;;;;;;;;;;;282.00;2278.40;;;;;;4984167;28;19909;-85
2024/02/07 08:27:58;;;;;;;;;;;282.20;2278.40;;;;;;4997055;28;19952;-85
2024/02/07 08:30:24;;;;;;;;;;;282.30;2278.40;;;;;;4995472;28;19909;-83
2024/02/07 08:32:49;;;;;;;;;;;282.10;2278.40;;;;;;4990358;28;19937;-86
2024/02/07 08:35:15;;;;;;;;;;;282.10;2278.40;;;;;;4978255;28;19917;-82
2024/02/07 08:37:41;;;;;;;;;;;282.10;2278.40;;;;;;4994015;28;19949;-81
2024/02/07 08:40:07;;;;;;;;;;;282.20;2278.40;;;;;;4977925;28;20000;-80
2024/02/07 08:42:34;;;;;;;;;;;282.20;2278.40;;;;;;4977423;28;19959;-81
2024/02/07 08:45:03;;;;;;;;;;;282.20;2278.40;;;;;;4983926;28;19959;-81
2024/02/07 08:47:29;;;;;;;;;;;282.20;2278.40;;;;;;4980601;28;20367;-80
2024/02/07 08:49:55;;;;;;;;;;;282.20;2278.40;;;;;;4977743;28;19978;-80
2024/02/07 08:52:20;;;;;;;;;;;282.10;2278.40;;;;;;4993598;28;19945;-81
2024/02/07 08:54:46;;;;;;;;;;;282.30;2278.40;;;;;;4994896;28;20363;-80
2024/02/07 08:57:12;;;;;;;;;;;282.30;2278.40;;;;;;4980320;28;19913;-80
2024/02/07 08:59:37;;;;;;;;;;;282.50;2278.40;;;;;;4983927;28;20356;-81
2024/02/07 09:02:06;;;;;;;;;;;307.30;2304.00;;;;;;4994573;28;20012;-82
2024/02/07 09:04:31;;;;;;;;;;;307.40;2304.00;;;;;;4977758;28;19941;-81
2024/02/07 09:06:57;;;;;;;;;;;307.50;2304.00;;;;;;4977170;28;19906;-81
2024/02/07 09:09:23;;;;;;;;;;;307.50;2304.00;;;;;;4993881;28;20279;-81
2024/02/07 09:11:48;;;;;;;;;;;307.50;2304.00;;;;;;4989684;28;19905;-80
2024/02/07 09:14:14;;;;;;;;;;;307.60;2304.00;;;;;;4993222;28;19914;-81
2024/02/07 09:16:39;;;;;;;;;;;307.60;2304.00;;;;;;4994442;28;19921;-82
2024/02/07 09:19:05;;;;;;;;;;;307.80;2304.00;;;;;;4977677;28;19906;-81
2024/02/07 09:21:31;;;;;;;;;;;308.10;2304.00;;;;;;4990322;28;19979;-81
2024/02/07 09:23:57;;;;;;;;;;;332.80;2329.60;;;;;;4994672;28;19910;-80
2024/02/07 09:26:22;;;;;;;;;;;332.90;2329.60;;;;;;4994592;28;19906;-80
2024/02/07 09:28:48;;;;;;;;;;;333.00;2329.60;;;;;;4976858;28;20257;-80
2024/02/07 09:31:13;;;;;;;;;;;333.10;2329.60;;;;;;4993462;28;19910;-80
2024/02/07 09:33:39;;;;;;;;;;;333.10;2329.60;;;;;;4976976;28;20000;-80
2024/02/07 09:36:05;;;;;;;;;;;333.30;2329.60;;;;;;4994391;28;19922;-79
2024/02/07 09:38:31;;;;;;;;;;;333.40;2329.60;;;;;;4977191;28;19997;-81
2024/02/07 09:40:58;;;;;;;;;;;333.40;2329.60;;;;;;4993273;28;19913;-82
2024/02/07 09:43:24;;;;;;;;;;;333.40;2329.60;;;;;;4977165;28;19909;-80
2024/02/07 09:45:55;;;;;;;;;;;333.40;2329.60;;;;;;4977007;28;20363;-80
2024/02/07 09:48:21;;;;;;;;;;;333.40;2329.60;;;;;;4984379;28;19905;-81
2024/02/07 09:50:47;;;;;;;;;;;333.40;2329.60;;;;;;4994101;28;19913;-80
2024/02/07 09:53:14;;;;;;;;;;;333.40;2329.60;;;;;;4975847;28;19997;-80
2024/02/07 09:55:40;;;;;;;;;;;333.60;2329.60;;;;;;4988179;28;19914;-80
2024/02/07 09:58:06;;;;;;;;;;;333.70;2329.60;;;;;;4979630;28;19906;-83
2024/02/07 10:00:32;;;;;;;;;;;358.40;2329.60;;;;;;4997820;28;20272;-80
2024/02/07 10:02:57;;;;;;;;;;;358.50;2329.60;;;;;;4980933;28;19910;-87
2024/02/07 10:05:29;;;;;;;;;;;358.50;2329.60;;;;;;4997862;28;19913;-81
2024/02/07 10:07:55;;;;;;;;;;;358.50;2329.60;;;;;;4980386;28;19929;-81
2024/02/07 10:10:21;;;;;;;;;;;358.50;2329.60;;;;;;4996894;28;20352;-80
2024/02/07 10:12:47;;;;;;;;;;;358.60;2329.60;;;;;;5010015;28;20376;-79
2024/02/07 10:15:12;;;;;;;;;;;358.60;2329.60;;;;;;4989369;28;20008;-79
2024/02/07 10:17:38;;;;;;;;;;;358.70;2329.60;;;;;;4980034;28;19905;-80
2024/02/07 10:20:11;;;;;;;;;;;358.70;2329.60;;;;;;4997045;28;19915;-77
2024/02/07 10:22:39;;;;;;;;;;;358.80;2329.60;;;;;;5005007;28;19924;-79
2024/02/07 10:25:15;;;;;;;;;;;358.70;2329.60;;;;;;4998573;28;19917;-77
2024/02/07 10:27:41;;;;;;;;;;;358.80;2329.60;;;;;;4979943;28;19933;-80
2024/02/07 10:30:08;;;;;;;;;;;358.90;2329.60;;;;;;4996039;28;20367;-77
2024/02/07 10:32:35;;;;;;;;;;;358.90;2329.60;;;;;;4995414;28;20004;-78
2024/02/07 10:35:01;;;;;;;;;;;358.90;2329.60;;;;;;4979994;28;19914;-80
2024/02/07 10:37:27;;;;;;;;;;;358.90;2329.60;;;;;;4997416;28;20372;-81
2024/02/07 10:40:00;;;;;;;;;;;359.10;2329.60;;;;;;5006348;28;19910;-80
2024/02/07 10:42:26;;;;;;;;;;;359.00;2329.60;;;;;;4995360;28;19917;-79
2024/02/07 10:45:02;;;;;;;;;;;359.00;2329.60;;;;;;5000487;28;19910;-79
2024/02/07 10:47:28;;;;;;;;;;;359.20;2329.60;;;;;;4980800;28;19997;-80
2024/02/07 10:49:53;;;;;;;;;;;359.30;2329.60;;;;;;4980909;28;19960;-80
2024/02/07 10:52:19;;;;;;;;;;;359.20;2329.60;;;;;;4995293;28;19949;-80
2024/02/07 10:54:45;;;;;;;;;;;359.20;2329.60;;;;;;4996235;28;20004;-80
2024/02/07 10:57:11;;;;;;;;;;;384.00;2329.60;;;;;;4978555;28;19921;-77
2024/02/07 10:59:39;;;;;;;;;;;359.30;2329.60;;;;;;4978820;28;19909;-80
2024/02/07 11:02:10;;;;;;;;;;;359.30;2329.60;;;;;;4978808;28;19914;-79
2024/02/07 11:04:36;;;;;;;;;;;359.30;2329.60;;;;;;4976379;28;20032;-78
2024/02/07 11:07:02;;;;;;;;;;;359.30;2329.60;;;;;;4979166;28;19910;-79
2024/02/07 11:09:28;;;;;;;;;;;359.30;2329.60;;;;;;4981276;28;19913;-78
2024/02/07 11:11:54;;;;;;;;;;;384.00;2329.60;;;;;;4984173;28;19918;-77
2024/02/07 11:14:19;;;;;;;;;;;384.00;2329.60;;;;;;4978560;28;20000;-78
2024/02/07 11:16:45;;;;;;;;;;;384.00;2329.60;;;;;;4994480;28;20020;-78
2024/02/07 11:19:11;;;;;;;;;;;384.10;2329.60;;;;;;4995627;28;19909;-82
2024/02/07 11:21:38;;;;;;;;;;;384.10;2329.60;;;;;;4995605;28;20012;-77
2024/02/07 11:24:03;;;;;;;;;;;;;;;;;;4977785;28;19956;-79
2024/02/07 11:26:29;;;;;;;;;;;;;;;;;;4994566;28;19914;-78
2024/02/07 11:28:55;;;;;;;;;;;;;;;;;;4995387;28;19913;-77
2024/02/07 11:31:21;;;;;;;;;;;;;;;;;;4994013;28;19914;-79
2024/02/07 11:33:51;;;;;;;;;;;;;;;;;;5006557;28;20294;-79
2024/02/07 11:36:17;;;;;;;;;;;;;;;;;;4999781;28;19974;-81
2024/02/07 11:38:43;;;;;;;;;;;;;;;;;;4994298;28;20056;-79
2024/02/07 11:41:09;;;;;;;;;;;;;;;;;;4993423;28;19987;-80
2024/02/07 11:43:35;;;;;;;;;;;384.70;2329.60;;;;;;4999011;28;19917;-81
2024/02/07 11:46:01;;;;;;;;;;;384.50;2329.60;;;;;;4981932;28;19952;-79
2024/02/07 11:48:27;;;;;;;;;;;384.50;2329.60;;;;;;4995087;28;19910;-79
2024/02/07 11:50:53;;;;;;;;;;;384.60;2329.60;;;;;;4999031;28;19912;-77
2024/02/07 11:53:24;;;;;;;;;;;384.60;2329.60;;;;;;4997938;28;19910;-76
2024/02/07 11:55:50;;;;;;;;;;;384.60;2329.60;;;;;;4992527;28;19976;-80
2024/02/07 11:58:17;;;;;;;;;;;384.70;2329.60;;;;;;4981216;28;20029;-81
2024/02/07 12:00:43;;;;;;;;;;;384.70;2329.60;;;;;;4979165;28;20386;-81
2024/02/07 12:03:12;;;;;;;;;;;384.70;2329.60;;;;;;4978544;28;19909;-80
2024/02/07 12:05:37;;;;;;;;;;;384.70;2329.60;;;;;;4978507;28;19960;-81
2024/02/07 12:08:03;;;;;;;;;;;384.90;2329.60;;;;;;4996526;28;20275;-78
2024/02/07 12:10:29;;;;;;;;;;;384.90;2329.60;;;;;;4998546;28;19960;-80
2024/02/07 12:12:55;;;;;;;;;;;384.90;2329.60;;;;;;4993185;28;19910;-80
2024/02/07 12:15:23;;;;;;;;;;;409.60;2355.20;;;;;;4994362;28;19988;-80
2024/02/07 12:17:49;;;;;;;;;;;409.70;2355.20;;;;;;4981641;28;19917;-80
2024/02/07 12:20:15;;;;;;;;;;;409.90;2304.00;;;;;;4994066;28;19913;-79
2024/02/07 12:22:44;;;;;;;;;;;410.00;2252.80;;;;;;4993088;28;19917;-78
2024/02/07 12:25:16;;;;;;;;;;;410.10;2252.80;;;;;;4981594;28;19909;-80
2024/02/07 12:27:44;;;;;;;;;;;410.30;2201.60;;;;;;4978096;28;19972;-79
2024/02/07 12:30:10;;;;;;;;;;;410.30;2201.60;;;;;;4977713;28;20356;-79
2024/02/07 12:32:37;;;;;;;;;;;410.40;2201.60;;;;;;4978470;28;19924;-80
2024/02/07 12:35:06;;;;;;;;;;;410.50;2201.60;;;;;;4995985;28;19921;-79
2024/02/07 12:37:33;;;;;;;;;;;410.50;2176.00;;;;;;4995012;28;20411;-82
2024/02/07 12:39:59;;;;;;;;;;;435.20;2150.40;;;;;;4996882;28;20274;-79
2024/02/07 12:42:24;;;;;;;;;;;435.30;2124.80;;;;;;4982077;28;20000;-77
2024/02/07 12:44:50;;;;;;;;;;;435.40;2073.60;;;;;;4991179;28;20371;-80
2024/02/07 12:47:17;;;;;;;;;;;435.40;2073.60;;;;;;4992622;28;19913;-80
2024/02/07 12:49:43;;;;;;;;;;;435.30;2022.40;;;;;;4976871;28;19937;-83
2024/02/07 12:52:09;;;;;;;;;;;435.20;2022.40;;;;;;4976805;28;19910;-79
2024/02/07 12:54:36;;;;;;;;;;;435.20;2022.40;;;;;;4975581;28;19918;-82
2024/02/07 12:57:02;;;;;;;;;;;435.20;2048.00;;;;;;4977572;28;19910;-82
2024/02/07 12:59:28;;;;;;;;;;;435.20;2048.00;;;;;;4994090;28;19917;-79
2024/02/07 13:01:54;;;;;;;;;;;435.20;2073.60;;;;;;4994114;28;20373;-81
2024/02/07 13:04:20;;;;;;;;;;;435.20;2073.60;;;;;;4993173;28;19914;-81
2024/02/07 13:06:46;;;;;;;;;;;410.50;2073.60;;;;;;4992788;28;19921;-83
2024/02/07 13:09:11;;;;;;;;;;;410.40;2124.80;;;;;;4977220;28;19960;-82
2024/02/07 13:11:37;;;;;;;;;;;410.40;2150.40;;;;;;4976950;28;19910;-80
2024/02/07 13:14:03;;;;;;;;;;;410.50;2150.40;;;;;;4976773;28;19909;-79
2024/02/07 13:16:32;;;;;;;;;;;410.40;2150.40;;;;;;4994153;28;19918;-81
2024/02/07 13:18:58;;;;;;;;;;;410.40;2176.00;;;;;;4992943;28;19913;-82
2024/02/07 13:21:23;;;;;;;;;;;410.40;2150.40;;;;;;4994297;28;19909;-81
2024/02/07 13:23:49;;;;;;;;;;;410.40;2124.80;;;;;;4976923;28;19913;-80
2024/02/07 13:26:21;;;;;;;;;;;410.40;2150.40;;;;;;4976282;28;20387;-80
2024/02/07 13:28:50;;;;;;;;;;;410.30;2150.40;;;;;;4976676;28;19914;-80
2024/02/07 13:31:16;;;;;;;;;;;410.30;2176.00;;;;;;4972917;28;19912;-79
2024/02/07 13:33:42;;;;;;;;;;;410.30;2176.00;;;;;;5000933;28;19920;-79
2024/02/07 13:36:08;;;;;;;;;;;410.40;2150.40;;;;;;4996174;28;19922;-81
2024/02/07 13:38:33;;;;;;;;;;;410.40;2099.20;;;;;;4997056;28;19959;-80
2024/02/07 13:40:59;;;;;;;;;;;410.40;2099.20;;;;;;4994584;28;19925;-79
2024/02/07 13:43:24;;;;;;;;;;;410.40;2073.60;;;;;;4979920;28;20459;-79
2024/02/07 13:45:50;;;;;;;;;;;410.40;2124.80;;;;;;4987434;28;19910;-81
2024/02/07 13:48:16;;;;;;;;;;;410.40;2099.20;;;;;;4983572;28;19909;-80
2024/02/07 13:50:41;;;;;;;;;;;410.40;2099.20;;;;;;4984328;28;19910;-81
2024/02/07 13:53:08;;;;;;;;;;;410.40;2124.80;;;;;;4997184;28;19909;-80
2024/02/07 13:55:34;;;;;;;;;;;410.30;2124.80;;;;;;4981372;28;19913;-80
2024/02/07 13:58:00;;;;;;;;;;;410.30;2099.20;;;;;;4979241;28;20414;-79
2024/02/07 14:00:26;;;;;;;;;;;410.30;2124.80;;;;;;4982775;28;19906;-80
2024/02/07 14:02:51;;;;;;;;;;;410.20;2124.80;;;;;;4994506;28;19959;-78
2024/02/07 14:05:17;;;;;;;;;;;410.20;2150.40;;;;;;4989053;28;19914;-81
2024/02/07 14:07:42;;;;;;;;;;;410.20;2176.00;;;;;;4998518;28;19913;-78
2024/02/07 14:10:08;;;;;;;;;;;410.20;2176.00;;;;;;4980097;28;19905;-79
2024/02/07 14:12:34;;;;;;;;;;;410.10;2201.60;;;;;;4997254;28;20273;-79
2024/02/07 14:14:59;;;;;;;;;;;410.10;2176.00;;;;;;4995529;28;19914;-81
2024/02/07 14:17:25;;;;;;;;;;;410.10;2201.60;;;;;;4986744;28;19916;-81
2024/02/07 14:19:50;;;;;;;;;;;410.10;2201.60;;;;;;5003195;28;19951;-80
2024/02/07 14:22:16;;;;;;;;;;;410.00;2227.20;;;;;;4996736;28;19925;-78
2024/02/07 14:24:42;;;;;;;;;;;410.00;2252.80;;;;;;4991076;28;20037;-78
2024/02/07 14:27:11;;;;;;;;;;;409.90;2252.80;;;;;;4998637;28;20004;-80
2024/02/07 14:29:37;;;;;;;;;;;409.90;2252.80;;;;;;4999626;28;19914;-80
2024/02/07 14:32:03;;;;;;;;;;;409.90;2252.80;;;;;;4979066;28;20002;-80
2024/02/07 14:34:30;;;;;;;;;;;409.90;2252.80;;;;;;4975443;28;19914;-81
2024/02/07 14:36:56;;;;;;;;;;;409.90;2227.20;;;;;;5002292;28;20328;-80
2024/02/07 14:39:22;;;;;;;;;;;409.90;2227.20;;;;;;4979299;28;19906;-78
2024/02/07 14:41:48;;;;;;;;;;;410.00;2252.80;;;;;;4996059;28;20430;-79